sensor_id;sensor_type;location;lat;lon;timestamp;P1;durP1;ratioP1;P2;durP2;ratioP2
23732;SDS011;12047;53.450;-2.286;2023-05-14T00:03:45;31.10;;;24.60;;
23732;SDS011;12047;53.450;-2.286;2023-05-14T00:08:46;30.08;;;26.08;;
23732;SDS011;12047;53.450;-2.286;2023-05-14T00:13:46;29.85;;;24.98;;
23732;SDS011;12047;53.450;-2.286;2023-05-14T00:18:48;32.10;;;25.55;;
23732;SDS011;12047;53.450;-2.286;2023-05-14T00:23:49;34.58;;;26.85;;
23732;SDS011;12047;53.450;-2.286;2023-05-14T00:28:55;36.22;;;27.60;;
23732;SDS011;12047;53.450;-2.286;2023-05-14T00:33:55;35.53;;;27.65;;
23732;SDS011;12047;53.450;-2.286;2023-05-14T00:38:59;36.55;;;27.90;;
23732;SDS011;12047;53.450;-2.286;2023-05-14T00:44:03;36.70;;;29.08;;
23732;SDS011;12047;53.450;-2.286;2023-05-14T00:49:03;35.95;;;28.70;;
23732;SDS011;12047;53.450;-2.286;2023-05-14T00:54:04;34.35;;;27.42;;
23732;SDS011;12047;53.450;-2.286;2023-05-14T00:59:05;34.88;;;27.27;;
23732;SDS011;12047;53.450;-2.286;2023-05-14T01:04:05;34.05;;;27.92;;
23732;SDS011;12047;53.450;-2.286;2023-05-14T01:09:18;33.78;;;27.45;;
23732;SDS011;12047;53.450;-2.286;2023-05-14T01:19:39;37.03;;;28.48;;
23732;SDS011;12047;53.450;-2.286;2023-05-14T01:24:41;35.75;;;28.75;;
23732;SDS011;12047;53.450;-2.286;2023-05-14T01:29:42;32.22;;;27.80;;
23732;SDS011;12047;53.450;-2.286;2023-05-14T01:34:48;40.47;;;29.80;;
23732;SDS011;12047;53.450;-2.286;2023-05-14T01:39:49;34.95;;;26.77;;
23732;SDS011;12047;53.450;-2.286;2023-05-14T01:44:51;39.92;;;29.10;;
23732;SDS011;12047;53.450;-2.286;2023-05-14T01:49:53;37.55;;;29.42;;
23732;SDS011;12047;53.450;-2.286;2023-05-14T01:54:53;39.38;;;30.42;;
23732;SDS011;12047;53.450;-2.286;2023-05-14T01:59:54;37.38;;;28.90;;
23732;SDS011;12047;53.450;-2.286;2023-05-14T02:04:54;35.53;;;29.00;;
23732;SDS011;12047;53.450;-2.286;2023-05-14T02:09:55;35.80;;;29.00;;
23732;SDS011;12047;53.450;-2.286;2023-05-14T02:14:55;40.78;;;30.48;;
23732;SDS011;12047;53.450;-2.286;2023-05-14T02:19:55;38.15;;;29.40;;
23732;SDS011;12047;53.450;-2.286;2023-05-14T02:24:56;41.67;;;29.60;;
23732;SDS011;12047;53.450;-2.286;2023-05-14T02:29:56;33.47;;;26.52;;
23732;SDS011;12047;53.450;-2.286;2023-05-14T02:34:59;36.42;;;28.30;;
23732;SDS011;12047;53.450;-2.286;2023-05-14T02:40:00;37.10;;;30.33;;
23732;SDS011;12047;53.450;-2.286;2023-05-14T02:45:00;39.83;;;31.27;;
23732;SDS011;12047;53.450;-2.286;2023-05-14T02:50:01;39.97;;;31.10;;
23732;SDS011;12047;53.450;-2.286;2023-05-14T02:55:03;44.25;;;33.00;;
23732;SDS011;12047;53.450;-2.286;2023-05-14T03:00:05;40.90;;;30.83;;
23732;SDS011;12047;53.450;-2.286;2023-05-14T03:05:06;41.42;;;32.83;;
23732;SDS011;12047;53.450;-2.286;2023-05-14T03:10:07;40.75;;;32.63;;
23732;SDS011;12047;53.450;-2.286;2023-05-14T03:15:08;42.25;;;32.63;;
23732;SDS011;12047;53.450;-2.286;2023-05-14T03:20:09;42.88;;;31.20;;
23732;SDS011;12047;53.450;-2.286;2023-05-14T03:25:10;39.65;;;30.25;;
23732;SDS011;12047;53.450;-2.286;2023-05-14T03:30:10;38.70;;;29.70;;
23732;SDS011;12047;53.450;-2.286;2023-05-14T03:35:11;38.90;;;29.80;;
23732;SDS011;12047;53.450;-2.286;2023-05-14T03:40:11;42.65;;;29.67;;
23732;SDS011;12047;53.450;-2.286;2023-05-14T03:45:12;37.78;;;28.85;;
23732;SDS011;12047;53.450;-2.286;2023-05-14T03:50:12;39.95;;;30.67;;
23732;SDS011;12047;53.450;-2.286;2023-05-14T03:55:13;43.28;;;32.17;;
23732;SDS011;12047;53.450;-2.286;2023-05-14T04:00:13;42.72;;;32.20;;
23732;SDS011;12047;53.450;-2.286;2023-05-14T04:05:15;41.13;;;28.98;;
23732;SDS011;12047;53.450;-2.286;2023-05-14T04:10:15;37.90;;;28.75;;
23732;SDS011;12047;53.450;-2.286;2023-05-14T04:15:15;39.45;;;29.80;;
23732;SDS011;12047;53.450;-2.286;2023-05-14T04:20:16;41.50;;;29.92;;
23732;SDS011;12047;53.450;-2.286;2023-05-14T04:25:16;41.17;;;29.67;;
23732;SDS011;12047;53.450;-2.286;2023-05-14T04:30:17;40.97;;;30.35;;
23732;SDS011;12047;53.450;-2.286;2023-05-14T04:35:19;40.28;;;30.52;;
23732;SDS011;12047;53.450;-2.286;2023-05-14T04:40:20;32.55;;;26.48;;
23732;SDS011;12047;53.450;-2.286;2023-05-14T04:45:21;36.67;;;28.33;;
23732;SDS011;12047;53.450;-2.286;2023-05-14T04:50:22;40.80;;;30.40;;
23732;SDS011;12047;53.450;-2.286;2023-05-14T04:55:22;39.45;;;28.55;;
23732;SDS011;12047;53.450;-2.286;2023-05-14T05:00:23;45.22;;;33.35;;
23732;SDS011;12047;53.450;-2.286;2023-05-14T05:05:23;39.10;;;29.05;;
23732;SDS011;12047;53.450;-2.286;2023-05-14T05:10:24;45.05;;;32.17;;
23732;SDS011;12047;53.450;-2.286;2023-05-14T05:15:25;38.28;;;27.30;;
23732;SDS011;12047;53.450;-2.286;2023-05-14T05:20:25;39.15;;;28.95;;
23732;SDS011;12047;53.450;-2.286;2023-05-14T05:25:27;43.30;;;30.50;;
23732;SDS011;12047;53.450;-2.286;2023-05-14T05:30:27;43.25;;;30.90;;
23732;SDS011;12047;53.450;-2.286;2023-05-14T05:35:29;39.50;;;30.75;;
23732;SDS011;12047;53.450;-2.286;2023-05-14T05:40:29;34.95;;;27.60;;
23732;SDS011;12047;53.450;-2.286;2023-05-14T05:45:30;41.92;;;33.17;;
23732;SDS011;12047;53.450;-2.286;2023-05-14T05:50:30;41.78;;;31.85;;
23732;SDS011;12047;53.450;-2.286;2023-05-14T05:55:31;42.90;;;31.92;;
23732;SDS011;12047;53.450;-2.286;2023-05-14T06:00:31;42.65;;;33.17;;
23732;SDS011;12047;53.450;-2.286;2023-05-14T06:05:32;44.80;;;32.38;;
23732;SDS011;12047;53.450;-2.286;2023-05-14T06:10:32;45.00;;;33.10;;
23732;SDS011;12047;53.450;-2.286;2023-05-14T06:15:34;40.78;;;32.22;;
23732;SDS011;12047;53.450;-2.286;2023-05-14T06:20:34;42.72;;;31.08;;
23732;SDS011;12047;53.450;-2.286;2023-05-14T06:25:34;42.50;;;32.25;;
23732;SDS011;12047;53.450;-2.286;2023-05-14T06:30:35;42.45;;;32.85;;
23732;SDS011;12047;53.450;-2.286;2023-05-14T06:35:35;43.97;;;33.80;;
23732;SDS011;12047;53.450;-2.286;2023-05-14T06:40:36;43.58;;;33.40;;
23732;SDS011;12047;53.450;-2.286;2023-05-14T06:45:36;40.38;;;31.38;;
23732;SDS011;12047;53.450;-2.286;2023-05-14T06:50:37;42.30;;;31.80;;
23732;SDS011;12047;53.450;-2.286;2023-05-14T06:55:37;40.50;;;31.98;;
23732;SDS011;12047;53.450;-2.286;2023-05-14T07:00:38;40.13;;;32.17;;
23732;SDS011;12047;53.450;-2.286;2023-05-14T07:05:39;39.50;;;31.75;;
23732;SDS011;12047;53.450;-2.286;2023-05-14T07:10:40;39.05;;;31.48;;
23732;SDS011;12047;53.450;-2.286;2023-05-14T07:15:40;39.45;;;30.10;;
23732;SDS011;12047;53.450;-2.286;2023-05-14T07:20:41;37.85;;;30.88;;
23732;SDS011;12047;53.450;-2.286;2023-05-14T07:25:42;37.05;;;30.95;;
23732;SDS011;12047;53.450;-2.286;2023-05-14T07:30:42;41.00;;;30.02;;
23732;SDS011;12047;53.450;-2.286;2023-05-14T07:35:43;38.75;;;30.38;;
23732;SDS011;12047;53.450;-2.286;2023-05-14T07:40:43;36.72;;;29.95;;
23732;SDS011;12047;53.450;-2.286;2023-05-14T07:45:44;39.40;;;30.85;;
23732;SDS011;12047;53.450;-2.286;2023-05-14T07:50:44;36.25;;;29.02;;
23732;SDS011;12047;53.450;-2.286;2023-05-14T07:55:45;38.38;;;28.30;;
23732;SDS011;12047;53.450;-2.286;2023-05-14T08:00:47;33.97;;;28.13;;
23732;SDS011;12047;53.450;-2.286;2023-05-14T08:05:47;34.80;;;28.50;;
23732;SDS011;12047;53.450;-2.286;2023-05-14T08:10:48;35.50;;;28.30;;
23732;SDS011;12047;53.450;-2.286;2023-05-14T08:15:50;33.75;;;27.33;;
23732;SDS011;12047;53.450;-2.286;2023-05-14T08:20:51;35.22;;;27.02;;
23732;SDS011;12047;53.450;-2.286;2023-05-14T08:25:52;33.22;;;26.30;;
23732;SDS011;12047;53.450;-2.286;2023-05-14T08:30:52;32.47;;;26.30;;
23732;SDS011;12047;53.450;-2.286;2023-05-14T08:35:53;31.75;;;25.83;;
23732;SDS011;12047;53.450;-2.286;2023-05-14T08:40:56;30.85;;;25.05;;
23732;SDS011;12047;53.450;-2.286;2023-05-14T08:45:59;27.83;;;23.33;;
23732;SDS011;12047;53.450;-2.286;2023-05-14T08:51:05;27.30;;;21.90;;
23732;SDS011;12047;53.450;-2.286;2023-05-14T08:56:07;26.30;;;20.58;;
23732;SDS011;12047;53.450;-2.286;2023-05-14T09:01:08;24.45;;;19.65;;
23732;SDS011;12047;53.450;-2.286;2023-05-14T09:06:10;21.80;;;18.88;;
23732;SDS011;12047;53.450;-2.286;2023-05-14T09:11:13;18.73;;;14.38;;
23732;SDS011;12047;53.450;-2.286;2023-05-14T09:16:13;19.95;;;14.98;;
23732;SDS011;12047;53.450;-2.286;2023-05-14T09:21:17;16.95;;;15.15;;
23732;SDS011;12047;53.450;-2.286;2023-05-14T09:26:17;18.52;;;15.63;;
23732;SDS011;12047;53.450;-2.286;2023-05-14T09:31:18;19.92;;;16.33;;
23732;SDS011;12047;53.450;-2.286;2023-05-14T09:36:18;21.67;;;16.30;;
23732;SDS011;12047;53.450;-2.286;2023-05-14T09:41:19;15.93;;;14.23;;
23732;SDS011;12047;53.450;-2.286;2023-05-14T09:46:22;13.30;;;11.77;;
23732;SDS011;12047;53.450;-2.286;2023-05-14T09:51:22;13.52;;;11.65;;
23732;SDS011;12047;53.450;-2.286;2023-05-14T09:56:23;14.75;;;12.07;;
23732;SDS011;12047;53.450;-2.286;2023-05-14T10:01:24;18.08;;;13.52;;
23732;SDS011;12047;53.450;-2.286;2023-05-14T10:06:27;17.15;;;13.90;;
23732;SDS011;12047;53.450;-2.286;2023-05-14T10:16:37;13.52;;;10.88;;
23732;SDS011;12047;53.450;-2.286;2023-05-14T10:21:52;11.45;;;9.27;;
23732;SDS011;12047;53.450;-2.286;2023-05-14T10:26:56;9.95;;;8.40;;
23732;SDS011;12047;53.450;-2.286;2023-05-14T10:31:57;8.57;;;7.70;;
23732;SDS011;12047;53.450;-2.286;2023-05-14T10:36:59;8.25;;;7.45;;
23732;SDS011;12047;53.450;-2.286;2023-05-14T10:42:00;6.05;;;5.43;;
23732;SDS011;12047;53.450;-2.286;2023-05-14T10:47:01;7.05;;;6.10;;
23732;SDS011;12047;53.450;-2.286;2023-05-14T10:52:02;7.32;;;5.57;;
23732;SDS011;12047;53.450;-2.286;2023-05-14T10:57:02;6.53;;;4.65;;
23732;SDS011;12047;53.450;-2.286;2023-05-14T11:02:18;5.82;;;5.07;;
23732;SDS011;12047;53.450;-2.286;2023-05-14T11:07:49;6.15;;;5.30;;
23732;SDS011;12047;53.450;-2.286;2023-05-14T11:12:57;6.10;;;5.32;;
23732;SDS011;12047;53.450;-2.286;2023-05-14T11:18:04;9.00;;;7.25;;
23732;SDS011;12047;53.450;-2.286;2023-05-14T11:23:07;10.85;;;6.85;;
23732;SDS011;12047;53.450;-2.286;2023-05-14T11:28:11;7.80;;;7.00;;
23732;SDS011;12047;53.450;-2.286;2023-05-14T11:33:11;9.65;;;7.65;;
23732;SDS011;12047;53.450;-2.286;2023-05-14T11:38:16;9.73;;;8.13;;
23732;SDS011;12047;53.450;-2.286;2023-05-14T11:43:18;10.43;;;8.50;;
23732;SDS011;12047;53.450;-2.286;2023-05-14T11:48:23;12.43;;;10.60;;
23732;SDS011;12047;53.450;-2.286;2023-05-14T11:53:24;16.15;;;10.48;;
23732;SDS011;12047;53.450;-2.286;2023-05-14T11:58:26;14.05;;;9.52;;
23732;SDS011;12047;53.450;-2.286;2023-05-14T12:03:29;10.43;;;9.25;;
23732;SDS011;12047;53.450;-2.286;2023-05-14T12:08:30;10.73;;;9.13;;
23732;SDS011;12047;53.450;-2.286;2023-05-14T12:13:31;10.43;;;9.05;;
23732;SDS011;12047;53.450;-2.286;2023-05-14T12:18:32;10.65;;;7.13;;
23732;SDS011;12047;53.450;-2.286;2023-05-14T12:23:33;8.75;;;6.57;;
23732;SDS011;12047;53.450;-2.286;2023-05-14T12:28:34;8.32;;;6.75;;
23732;SDS011;12047;53.450;-2.286;2023-05-14T12:33:37;7.45;;;6.70;;
23732;SDS011;12047;53.450;-2.286;2023-05-14T12:38:38;7.85;;;7.00;;
23732;SDS011;12047;53.450;-2.286;2023-05-14T12:43:43;8.70;;;6.78;;
23732;SDS011;12047;53.450;-2.286;2023-05-14T12:48:46;8.13;;;5.40;;
23732;SDS011;12047;53.450;-2.286;2023-05-14T12:53:47;7.82;;;6.47;;
23732;SDS011;12047;53.450;-2.286;2023-05-14T12:58:48;11.45;;;7.53;;
23732;SDS011;12047;53.450;-2.286;2023-05-14T13:03:50;9.95;;;6.80;;
23732;SDS011;12047;53.450;-2.286;2023-05-14T13:08:50;7.18;;;6.38;;
23732;SDS011;12047;53.450;-2.286;2023-05-14T13:13:51;11.70;;;8.73;;
23732;SDS011;12047;53.450;-2.286;2023-05-14T13:18:51;9.02;;;6.82;;
23732;SDS011;12047;53.450;-2.286;2023-05-14T13:23:52;9.45;;;6.30;;
23732;SDS011;12047;53.450;-2.286;2023-05-14T13:28:52;5.20;;;4.70;;
23732;SDS011;12047;53.450;-2.286;2023-05-14T13:33:53;6.43;;;4.18;;
23732;SDS011;12047;53.450;-2.286;2023-05-14T13:38:53;6.72;;;4.20;;
23732;SDS011;12047;53.450;-2.286;2023-05-14T13:43:57;4.28;;;3.83;;
23732;SDS011;12047;53.450;-2.286;2023-05-14T13:49:02;5.85;;;3.63;;
23732;SDS011;12047;53.450;-2.286;2023-05-14T13:54:03;4.28;;;3.35;;
23732;SDS011;12047;53.450;-2.286;2023-05-14T13:59:06;4.10;;;3.40;;
23732;SDS011;12047;53.450;-2.286;2023-05-14T14:04:06;4.10;;;2.90;;
23732;SDS011;12047;53.450;-2.286;2023-05-14T14:09:07;4.85;;;2.45;;
23732;SDS011;12047;53.450;-2.286;2023-05-14T14:14:09;3.53;;;2.92;;
23732;SDS011;12047;53.450;-2.286;2023-05-14T14:19:10;4.80;;;2.78;;
23732;SDS011;12047;53.450;-2.286;2023-05-14T14:24:11;4.43;;;2.53;;
23732;SDS011;12047;53.450;-2.286;2023-05-14T14:29:12;3.38;;;2.63;;
23732;SDS011;12047;53.450;-2.286;2023-05-14T14:34:12;2.80;;;2.57;;
23732;SDS011;12047;53.450;-2.286;2023-05-14T14:39:13;2.60;;;2.28;;
23732;SDS011;12047;53.450;-2.286;2023-05-14T14:44:14;4.25;;;2.10;;
23732;SDS011;12047;53.450;-2.286;2023-05-14T14:49:14;3.28;;;2.33;;
23732;SDS011;12047;53.450;-2.286;2023-05-14T14:54:15;3.88;;;2.53;;
23732;SDS011;12047;53.450;-2.286;2023-05-14T14:59:15;5.13;;;2.83;;
23732;SDS011;12047;53.450;-2.286;2023-05-14T15:04:16;3.58;;;2.70;;
23732;SDS011;12047;53.450;-2.286;2023-05-14T15:09:16;3.60;;;2.70;;
23732;SDS011;12047;53.450;-2.286;2023-05-14T15:14:17;5.63;;;2.55;;
23732;SDS011;12047;53.450;-2.286;2023-05-14T15:19:17;4.07;;;3.42;;
23732;SDS011;12047;53.450;-2.286;2023-05-14T15:24:20;4.97;;;3.72;;
23732;SDS011;12047;53.450;-2.286;2023-05-14T15:29:22;10.27;;;4.55;;
23732;SDS011;12047;53.450;-2.286;2023-05-14T15:34:23;7.65;;;5.30;;
23732;SDS011;12047;53.450;-2.286;2023-05-14T15:39:24;6.35;;;4.93;;
23732;SDS011;12047;53.450;-2.286;2023-05-14T15:44:24;6.53;;;4.70;;
23732;SDS011;12047;53.450;-2.286;2023-05-14T15:49:25;5.57;;;4.95;;
23732;SDS011;12047;53.450;-2.286;2023-05-14T15:54:25;8.00;;;4.90;;
23732;SDS011;12047;53.450;-2.286;2023-05-14T15:59:26;6.03;;;4.50;;
23732;SDS011;12047;53.450;-2.286;2023-05-14T16:04:27;6.38;;;4.95;;
23732;SDS011;12047;53.450;-2.286;2023-05-14T16:09:27;6.25;;;3.97;;
23732;SDS011;12047;53.450;-2.286;2023-05-14T16:14:27;9.50;;;4.10;;
23732;SDS011;12047;53.450;-2.286;2023-05-14T16:19:28;4.18;;;3.13;;
23732;SDS011;12047;53.450;-2.286;2023-05-14T16:24:29;8.18;;;3.40;;
23732;SDS011;12047;53.450;-2.286;2023-05-14T16:29:29;4.88;;;3.17;;
23732;SDS011;12047;53.450;-2.286;2023-05-14T16:34:30;4.40;;;3.05;;
23732;SDS011;12047;53.450;-2.286;2023-05-14T16:39:30;6.95;;;2.92;;
23732;SDS011;12047;53.450;-2.286;2023-05-14T16:44:31;6.65;;;2.83;;
23732;SDS011;12047;53.450;-2.286;2023-05-14T16:49:31;6.30;;;3.33;;
23732;SDS011;12047;53.450;-2.286;2023-05-14T16:54:32;5.55;;;3.35;;
23732;SDS011;12047;53.450;-2.286;2023-05-14T16:59:32;6.60;;;3.00;;
23732;SDS011;12047;53.450;-2.286;2023-05-14T17:04:33;5.07;;;2.40;;
23732;SDS011;12047;53.450;-2.286;2023-05-14T17:09:37;7.45;;;3.00;;
23732;SDS011;12047;53.450;-2.286;2023-05-14T17:14:37;7.03;;;3.30;;
23732;SDS011;12047;53.450;-2.286;2023-05-14T17:19:38;6.85;;;3.42;;
23732;SDS011;12047;53.450;-2.286;2023-05-14T17:24:38;7.07;;;3.40;;
23732;SDS011;12047;53.450;-2.286;2023-05-14T17:29:39;6.82;;;4.00;;
23732;SDS011;12047;53.450;-2.286;2023-05-14T17:34:39;9.73;;;3.92;;
23732;SDS011;12047;53.450;-2.286;2023-05-14T17:39:40;7.10;;;3.50;;
23732;SDS011;12047;53.450;-2.286;2023-05-14T17:44:40;6.38;;;3.38;;
23732;SDS011;12047;53.450;-2.286;2023-05-14T17:49:41;7.38;;;2.53;;
23732;SDS011;12047;53.450;-2.286;2023-05-14T17:54:41;6.20;;;3.50;;
23732;SDS011;12047;53.450;-2.286;2023-05-14T17:59:42;6.50;;;3.53;;
23732;SDS011;12047;53.450;-2.286;2023-05-14T18:04:42;7.07;;;3.38;;
23732;SDS011;12047;53.450;-2.286;2023-05-14T18:09:43;7.55;;;3.60;;
23732;SDS011;12047;53.450;-2.286;2023-05-14T18:14:43;8.30;;;4.13;;
23732;SDS011;12047;53.450;-2.286;2023-05-14T18:19:44;10.70;;;4.10;;
23732;SDS011;12047;53.450;-2.286;2023-05-14T18:24:44;10.00;;;4.95;;
23732;SDS011;12047;53.450;-2.286;2023-05-14T18:29:45;10.13;;;5.00;;
23732;SDS011;12047;53.450;-2.286;2023-05-14T18:34:46;9.90;;;4.85;;
23732;SDS011;12047;53.450;-2.286;2023-05-14T18:39:46;8.23;;;5.18;;
23732;SDS011;12047;53.450;-2.286;2023-05-14T18:44:47;7.82;;;4.85;;
23732;SDS011;12047;53.450;-2.286;2023-05-14T18:49:47;11.05;;;5.10;;
23732;SDS011;12047;53.450;-2.286;2023-05-14T18:54:49;8.55;;;5.43;;
23732;SDS011;12047;53.450;-2.286;2023-05-14T18:59:50;9.52;;;4.68;;
23732;SDS011;12047;53.450;-2.286;2023-05-14T19:04:50;4.70;;;3.00;;
23732;SDS011;12047;53.450;-2.286;2023-05-14T19:09:51;5.72;;;2.92;;
23732;SDS011;12047;53.450;-2.286;2023-05-14T19:14:52;4.90;;;3.20;;
23732;SDS011;12047;53.450;-2.286;2023-05-14T19:19:52;7.75;;;3.35;;
23732;SDS011;12047;53.450;-2.286;2023-05-14T19:24:53;9.27;;;3.17;;
23732;SDS011;12047;53.450;-2.286;2023-05-14T19:29:53;5.00;;;2.50;;
23732;SDS011;12047;53.450;-2.286;2023-05-14T19:34:54;5.82;;;2.30;;
23732;SDS011;12047;53.450;-2.286;2023-05-14T19:39:54;4.93;;;2.63;;
23732;SDS011;12047;53.450;-2.286;2023-05-14T19:44:55;3.22;;;2.35;;
23732;SDS011;12047;53.450;-2.286;2023-05-14T19:49:55;4.25;;;1.83;;
23732;SDS011;12047;53.450;-2.286;2023-05-14T19:54:55;4.32;;;1.55;;
23732;SDS011;12047;53.450;-2.286;2023-05-14T19:59:56;2.70;;;1.02;;
23732;SDS011;12047;53.450;-2.286;2023-05-14T20:04:57;2.17;;;1.00;;
23732;SDS011;12047;53.450;-2.286;2023-05-14T20:09:57;3.00;;;1.05;;
23732;SDS011;12047;53.450;-2.286;2023-05-14T20:14:58;1.95;;;1.10;;
23732;SDS011;12047;53.450;-2.286;2023-05-14T20:19:58;2.35;;;1.15;;
23732;SDS011;12047;53.450;-2.286;2023-05-14T20:24:59;3.90;;;1.38;;
23732;SDS011;12047;53.450;-2.286;2023-05-14T20:29:59;7.53;;;1.70;;
23732;SDS011;12047;53.450;-2.286;2023-05-14T20:35:00;7.32;;;1.70;;
23732;SDS011;12047;53.450;-2.286;2023-05-14T20:40:01;5.32;;;1.50;;
23732;SDS011;12047;53.450;-2.286;2023-05-14T20:45:03;7.20;;;2.00;;
23732;SDS011;12047;53.450;-2.286;2023-05-14T20:50:05;7.82;;;2.25;;
23732;SDS011;12047;53.450;-2.286;2023-05-14T20:55:06;9.00;;;2.05;;
23732;SDS011;12047;53.450;-2.286;2023-05-14T21:00:07;7.97;;;2.30;;
23732;SDS011;12047;53.450;-2.286;2023-05-14T21:05:09;14.15;;;3.00;;
23732;SDS011;12047;53.450;-2.286;2023-05-14T21:10:09;15.05;;;3.13;;
23732;SDS011;12047;53.450;-2.286;2023-05-14T21:15:10;9.98;;;2.90;;
23732;SDS011;12047;53.450;-2.286;2023-05-14T21:20:11;14.52;;;2.83;;
23732;SDS011;12047;53.450;-2.286;2023-05-14T21:25:14;13.23;;;2.90;;
23732;SDS011;12047;53.450;-2.286;2023-05-14T21:30:15;11.50;;;2.80;;
23732;SDS011;12047;53.450;-2.286;2023-05-14T21:35:15;13.18;;;3.08;;
23732;SDS011;12047;53.450;-2.286;2023-05-14T21:40:16;10.85;;;2.95;;
23732;SDS011;12047;53.450;-2.286;2023-05-14T21:45:16;8.32;;;2.95;;
23732;SDS011;12047;53.450;-2.286;2023-05-14T21:50:17;15.27;;;3.30;;
23732;SDS011;12047;53.450;-2.286;2023-05-14T21:55:17;11.60;;;2.88;;
23732;SDS011;12047;53.450;-2.286;2023-05-14T22:00:18;14.18;;;2.88;;
23732;SDS011;12047;53.450;-2.286;2023-05-14T22:05:23;19.52;;;3.40;;
23732;SDS011;12047;53.450;-2.286;2023-05-14T22:10:23;18.00;;;3.58;;
23732;SDS011;12047;53.450;-2.286;2023-05-14T22:15:24;13.23;;;3.35;;
23732;SDS011;12047;53.450;-2.286;2023-05-14T22:20:25;13.40;;;2.90;;
23732;SDS011;12047;53.450;-2.286;2023-05-14T22:25:26;14.02;;;2.88;;
23732;SDS011;12047;53.450;-2.286;2023-05-14T22:30:26;15.55;;;3.00;;
23732;SDS011;12047;53.450;-2.286;2023-05-14T22:35:27;13.80;;;2.80;;
23732;SDS011;12047;53.450;-2.286;2023-05-14T22:40:27;14.35;;;2.92;;
23732;SDS011;12047;53.450;-2.286;2023-05-14T22:45:28;14.48;;;2.92;;
23732;SDS011;12047;53.450;-2.286;2023-05-14T22:50:29;16.35;;;3.33;;
23732;SDS011;12047;53.450;-2.286;2023-05-14T22:55:29;13.90;;;2.33;;
23732;SDS011;12047;53.450;-2.286;2023-05-14T23:00:30;14.70;;;2.90;;
23732;SDS011;12047;53.450;-2.286;2023-05-14T23:05:31;17.65;;;2.88;;
23732;SDS011;12047;53.450;-2.286;2023-05-14T23:10:31;13.73;;;2.75;;
23732;SDS011;12047;53.450;-2.286;2023-05-14T23:15:32;14.48;;;2.35;;
23732;SDS011;12047;53.450;-2.286;2023-05-14T23:20:33;12.98;;;2.85;;
23732;SDS011;12047;53.450;-2.286;2023-05-14T23:25:33;11.93;;;2.20;;
23732;SDS011;12047;53.450;-2.286;2023-05-14T23:30:34;11.65;;;2.08;;
23732;SDS011;12047;53.450;-2.286;2023-05-14T23:35:35;16.10;;;2.90;;
23732;SDS011;12047;53.450;-2.286;2023-05-14T23:40:37;14.77;;;2.50;;
23732;SDS011;12047;53.450;-2.286;2023-05-14T23:45:37;11.55;;;2.40;;
23732;SDS011;12047;53.450;-2.286;2023-05-14T23:50:38;14.70;;;2.80;;
23732;SDS011;12047;53.450;-2.286;2023-05-14T23:55:38;14.45;;;2.38;;
